sensor_id;sensor_type;location;lat;lon;timestamp;P1;durP1;ratioP1;P2;durP2;ratioP2
54241;SDS011;40156;51.080;17.082;2023-07-20T00:01:53;2.88;;;1.80;;
54241;SDS011;40156;51.080;17.082;2023-07-20T00:04:20;4.10;;;2.22;;
54241;SDS011;40156;51.080;17.082;2023-07-20T00:06:48;3.03;;;1.88;;
54241;SDS011;40156;51.080;17.082;2023-07-20T00:09:15;3.00;;;1.80;;
54241;SDS011;40156;51.080;17.082;2023-07-20T00:11:48;4.15;;;2.45;;
54241;SDS011;40156;51.080;17.082;2023-07-20T00:14:16;3.75;;;2.08;;
54241;SDS011;40156;51.080;17.082;2023-07-20T00:16:44;5.03;;;2.10;;
54241;SDS011;40156;51.080;17.082;2023-07-20T00:19:12;5.57;;;2.38;;
54241;SDS011;40156;51.080;17.082;2023-07-20T00:21:40;6.18;;;2.30;;
54241;SDS011;40156;51.080;17.082;2023-07-20T00:24:07;6.70;;;2.67;;
54241;SDS011;40156;51.080;17.082;2023-07-20T00:26:35;4.07;;;2.47;;
54241;SDS011;40156;51.080;17.082;2023-07-20T00:29:02;2.95;;;2.38;;
54241;SDS011;40156;51.080;17.082;2023-07-20T00:31:30;4.72;;;2.53;;
54241;SDS011;40156;51.080;17.082;2023-07-20T00:33:57;5.18;;;2.53;;
54241;SDS011;40156;51.080;17.082;2023-07-20T00:36:25;6.40;;;2.97;;
54241;SDS011;40156;51.080;17.082;2023-07-20T00:38:52;4.82;;;2.75;;
54241;SDS011;40156;51.080;17.082;2023-07-20T00:41:20;4.72;;;2.75;;
54241;SDS011;40156;51.080;17.082;2023-07-20T00:43:47;5.15;;;2.90;;
54241;SDS011;40156;51.080;17.082;2023-07-20T00:46:15;5.30;;;2.75;;
54241;SDS011;40156;51.080;17.082;2023-07-20T00:48:42;4.28;;;3.00;;
54241;SDS011;40156;51.080;17.082;2023-07-20T00:51:10;3.33;;;2.40;;
54241;SDS011;40156;51.080;17.082;2023-07-20T00:53:38;4.72;;;2.75;;
54241;SDS011;40156;51.080;17.082;2023-07-20T00:56:05;4.72;;;2.33;;
54241;SDS011;40156;51.080;17.082;2023-07-20T00:58:33;3.28;;;2.30;;
54241;SDS011;40156;51.080;17.082;2023-07-20T01:01:00;3.35;;;1.85;;
54241;SDS011;40156;51.080;17.082;2023-07-20T01:03:28;3.80;;;2.10;;
54241;SDS011;40156;51.080;17.082;2023-07-20T01:08:52;4.47;;;2.42;;
54241;SDS011;40156;51.080;17.082;2023-07-20T01:11:28;3.45;;;1.88;;
54241;SDS011;40156;51.080;17.082;2023-07-20T01:13:59;3.28;;;2.20;;
54241;SDS011;40156;51.080;17.082;2023-07-20T01:16:27;5.03;;;2.90;;
54241;SDS011;40156;51.080;17.082;2023-07-20T01:18:54;7.38;;;2.70;;
54241;SDS011;40156;51.080;17.082;2023-07-20T01:21:24;2.65;;;2.10;;
54241;SDS011;40156;51.080;17.082;2023-07-20T01:31:36;4.85;;;2.65;;
54241;SDS011;40156;51.080;17.082;2023-07-20T01:34:05;4.18;;;2.45;;
54241;SDS011;40156;51.080;17.082;2023-07-20T01:36:35;4.80;;;2.00;;
54241;SDS011;40156;51.080;17.082;2023-07-20T01:39:03;3.08;;;2.22;;
54241;SDS011;40156;51.080;17.082;2023-07-20T01:41:31;4.63;;;2.45;;
54241;SDS011;40156;51.080;17.082;2023-07-20T01:43:59;4.10;;;2.50;;
54241;SDS011;40156;51.080;17.082;2023-07-20T01:46:27;5.88;;;2.80;;
54241;SDS011;40156;51.080;17.082;2023-07-20T01:48:54;4.20;;;2.50;;
54241;SDS011;40156;51.080;17.082;2023-07-20T01:51:22;4.03;;;2.95;;
54241;SDS011;40156;51.080;17.082;2023-07-20T01:53:50;7.10;;;2.83;;
54241;SDS011;40156;51.080;17.082;2023-07-20T01:56:17;6.68;;;3.00;;
54241;SDS011;40156;51.080;17.082;2023-07-20T01:58:44;4.20;;;2.92;;
54241;SDS011;40156;51.080;17.082;2023-07-20T02:01:12;5.07;;;3.03;;
54241;SDS011;40156;51.080;17.082;2023-07-20T02:03:40;3.85;;;2.80;;
54241;SDS011;40156;51.080;17.082;2023-07-20T02:06:07;4.35;;;2.90;;
54241;SDS011;40156;51.080;17.082;2023-07-20T02:08:35;4.35;;;2.60;;
54241;SDS011;40156;51.080;17.082;2023-07-20T02:11:02;4.72;;;2.70;;
54241;SDS011;40156;51.080;17.082;2023-07-20T02:13:30;4.68;;;3.00;;
54241;SDS011;40156;51.080;17.082;2023-07-20T02:15:57;3.03;;;2.47;;
54241;SDS011;40156;51.080;17.082;2023-07-20T02:18:25;6.40;;;3.05;;
54241;SDS011;40156;51.080;17.082;2023-07-20T02:20:53;4.05;;;2.95;;
54241;SDS011;40156;51.080;17.082;2023-07-20T02:23:20;5.15;;;3.10;;
54241;SDS011;40156;51.080;17.082;2023-07-20T02:25:48;5.03;;;3.15;;
54241;SDS011;40156;51.080;17.082;2023-07-20T02:28:15;5.80;;;3.22;;
54241;SDS011;40156;51.080;17.082;2023-07-20T02:30:43;4.85;;;2.70;;
54241;SDS011;40156;51.080;17.082;2023-07-20T02:33:10;4.05;;;2.67;;
54241;SDS011;40156;51.080;17.082;2023-07-20T02:35:39;5.07;;;2.92;;
54241;SDS011;40156;51.080;17.082;2023-07-20T02:38:07;7.15;;;2.75;;
54241;SDS011;40156;51.080;17.082;2023-07-20T02:40:34;5.15;;;2.80;;
54241;SDS011;40156;51.080;17.082;2023-07-20T02:43:02;5.72;;;2.97;;
54241;SDS011;40156;51.080;17.082;2023-07-20T02:45:29;6.43;;;3.20;;
54241;SDS011;40156;51.080;17.082;2023-07-20T02:47:56;4.55;;;2.75;;
54241;SDS011;40156;51.080;17.082;2023-07-20T02:50:24;7.20;;;2.95;;
54241;SDS011;40156;51.080;17.082;2023-07-20T02:52:51;4.53;;;3.13;;
54241;SDS011;40156;51.080;17.082;2023-07-20T02:55:19;7.28;;;3.42;;
54241;SDS011;40156;51.080;17.082;2023-07-20T02:57:46;3.85;;;3.03;;
54241;SDS011;40156;51.080;17.082;2023-07-20T03:00:14;6.50;;;3.42;;
54241;SDS011;40156;51.080;17.082;2023-07-20T03:02:42;4.30;;;3.08;;
54241;SDS011;40156;51.080;17.082;2023-07-20T03:05:09;8.35;;;3.55;;
54241;SDS011;40156;51.080;17.082;2023-07-20T03:07:38;4.57;;;3.42;;
54241;SDS011;40156;51.080;17.082;2023-07-20T03:10:06;5.60;;;3.38;;
54241;SDS011;40156;51.080;17.082;2023-07-20T03:12:33;5.57;;;3.58;;
54241;SDS011;40156;51.080;17.082;2023-07-20T03:15:04;6.93;;;3.40;;
54241;SDS011;40156;51.080;17.082;2023-07-20T03:17:31;4.55;;;3.25;;
54241;SDS011;40156;51.080;17.082;2023-07-20T03:19:59;4.22;;;3.25;;
54241;SDS011;40156;51.080;17.082;2023-07-20T03:22:27;8.02;;;3.35;;
54241;SDS011;40156;51.080;17.082;2023-07-20T03:24:54;4.63;;;3.05;;
54241;SDS011;40156;51.080;17.082;2023-07-20T03:27:22;4.70;;;3.25;;
54241;SDS011;40156;51.080;17.082;2023-07-20T03:29:49;3.65;;;2.90;;
54241;SDS011;40156;51.080;17.082;2023-07-20T03:32:16;4.90;;;2.97;;
54241;SDS011;40156;51.080;17.082;2023-07-20T03:34:44;5.22;;;2.72;;
54241;SDS011;40156;51.080;17.082;2023-07-20T03:37:12;7.10;;;2.88;;
54241;SDS011;40156;51.080;17.082;2023-07-20T03:39:40;8.00;;;3.15;;
54241;SDS011;40156;51.080;17.082;2023-07-20T03:42:07;4.53;;;2.60;;
54241;SDS011;40156;51.080;17.082;2023-07-20T03:44:35;4.53;;;2.80;;
54241;SDS011;40156;51.080;17.082;2023-07-20T03:47:02;8.60;;;2.75;;
54241;SDS011;40156;51.080;17.082;2023-07-20T03:49:30;3.85;;;2.50;;
54241;SDS011;40156;51.080;17.082;2023-07-20T03:51:57;3.97;;;3.15;;
54241;SDS011;40156;51.080;17.082;2023-07-20T03:54:25;4.68;;;3.00;;
54241;SDS011;40156;51.080;17.082;2023-07-20T03:56:52;7.90;;;2.95;;
54241;SDS011;40156;51.080;17.082;2023-07-20T03:59:20;6.60;;;3.00;;
54241;SDS011;40156;51.080;17.082;2023-07-20T04:01:47;5.38;;;3.30;;
54241;SDS011;40156;51.080;17.082;2023-07-20T04:04:15;7.50;;;2.88;;
54241;SDS011;40156;51.080;17.082;2023-07-20T04:06:43;5.68;;;3.65;;
54241;SDS011;40156;51.080;17.082;2023-07-20T04:09:11;6.07;;;2.85;;
54241;SDS011;40156;51.080;17.082;2023-07-20T04:11:38;4.28;;;2.78;;
54241;SDS011;40156;51.080;17.082;2023-07-20T04:14:06;3.85;;;2.67;;
54241;SDS011;40156;51.080;17.082;2023-07-20T04:16:33;5.15;;;2.80;;
54241;SDS011;40156;51.080;17.082;2023-07-20T04:19:01;7.65;;;2.90;;
54241;SDS011;40156;51.080;17.082;2023-07-20T04:21:31;4.32;;;2.83;;
54241;SDS011;40156;51.080;17.082;2023-07-20T04:23:59;6.50;;;2.85;;
54241;SDS011;40156;51.080;17.082;2023-07-20T04:26:31;6.32;;;3.40;;
54241;SDS011;40156;51.080;17.082;2023-07-20T04:28:59;6.53;;;3.08;;
54241;SDS011;40156;51.080;17.082;2023-07-20T04:31:32;5.72;;;2.67;;
54241;SDS011;40156;51.080;17.082;2023-07-20T04:34:03;4.85;;;3.08;;
54241;SDS011;40156;51.080;17.082;2023-07-20T04:36:30;5.50;;;3.20;;
54241;SDS011;40156;51.080;17.082;2023-07-20T04:38:58;8.27;;;3.33;;
54241;SDS011;40156;51.080;17.082;2023-07-20T04:41:25;7.18;;;3.33;;
54241;SDS011;40156;51.080;17.082;2023-07-20T04:43:53;5.00;;;3.25;;
54241;SDS011;40156;51.080;17.082;2023-07-20T04:46:20;4.97;;;3.00;;
54241;SDS011;40156;51.080;17.082;2023-07-20T04:48:54;4.28;;;3.38;;
54241;SDS011;40156;51.080;17.082;2023-07-20T04:51:21;7.30;;;3.35;;
54241;SDS011;40156;51.080;17.082;2023-07-20T04:53:49;4.63;;;3.00;;
54241;SDS011;40156;51.080;17.082;2023-07-20T04:56:18;5.55;;;3.10;;
54241;SDS011;40156;51.080;17.082;2023-07-20T04:58:46;5.75;;;3.25;;
54241;SDS011;40156;51.080;17.082;2023-07-20T05:01:16;4.45;;;3.47;;
54241;SDS011;40156;51.080;17.082;2023-07-20T05:03:44;6.30;;;3.70;;
54241;SDS011;40156;51.080;17.082;2023-07-20T05:06:16;5.78;;;3.10;;
54241;SDS011;40156;51.080;17.082;2023-07-20T05:08:58;5.28;;;2.92;;
54241;SDS011;40156;51.080;17.082;2023-07-20T05:11:26;7.60;;;3.65;;
54241;SDS011;40156;51.080;17.082;2023-07-20T05:13:53;5.05;;;4.05;;
54241;SDS011;40156;51.080;17.082;2023-07-20T05:16:20;6.25;;;4.00;;
54241;SDS011;40156;51.080;17.082;2023-07-20T05:18:49;10.75;;;3.63;;
54241;SDS011;40156;51.080;17.082;2023-07-20T05:21:16;6.53;;;3.70;;
54241;SDS011;40156;51.080;17.082;2023-07-20T05:23:43;8.95;;;3.53;;
54241;SDS011;40156;51.080;17.082;2023-07-20T05:26:11;5.97;;;3.38;;
54241;SDS011;40156;51.080;17.082;2023-07-20T05:28:38;5.45;;;3.38;;
54241;SDS011;40156;51.080;17.082;2023-07-20T05:31:06;6.00;;;3.55;;
54241;SDS011;40156;51.080;17.082;2023-07-20T05:33:33;11.82;;;4.18;;
54241;SDS011;40156;51.080;17.082;2023-07-20T05:36:01;4.78;;;3.25;;
54241;SDS011;40156;51.080;17.082;2023-07-20T05:38:28;5.50;;;3.60;;
54241;SDS011;40156;51.080;17.082;2023-07-20T05:40:59;6.13;;;3.78;;
54241;SDS011;40156;51.080;17.082;2023-07-20T05:43:27;8.07;;;4.07;;
54241;SDS011;40156;51.080;17.082;2023-07-20T05:45:54;9.32;;;3.80;;
54241;SDS011;40156;51.080;17.082;2023-07-20T05:48:21;7.05;;;4.07;;
54241;SDS011;40156;51.080;17.082;2023-07-20T05:50:49;5.38;;;3.95;;
54241;SDS011;40156;51.080;17.082;2023-07-20T05:53:16;7.30;;;3.85;;
54241;SDS011;40156;51.080;17.082;2023-07-20T05:55:43;7.22;;;4.28;;
54241;SDS011;40156;51.080;17.082;2023-07-20T05:58:11;11.68;;;4.50;;
54241;SDS011;40156;51.080;17.082;2023-07-20T06:00:38;8.27;;;3.85;;
54241;SDS011;40156;51.080;17.082;2023-07-20T06:03:06;8.10;;;3.90;;
54241;SDS011;40156;51.080;17.082;2023-07-20T06:05:33;5.38;;;3.90;;
54241;SDS011;40156;51.080;17.082;2023-07-20T06:08:01;8.00;;;3.92;;
54241;SDS011;40156;51.080;17.082;2023-07-20T06:10:28;6.03;;;3.75;;
54241;SDS011;40156;51.080;17.082;2023-07-20T06:12:56;6.47;;;4.43;;
54241;SDS011;40156;51.080;17.082;2023-07-20T06:15:24;6.07;;;4.50;;
54241;SDS011;40156;51.080;17.082;2023-07-20T06:17:53;10.10;;;5.32;;
54241;SDS011;40156;51.080;17.082;2023-07-20T06:20:21;6.78;;;4.80;;
54241;SDS011;40156;51.080;17.082;2023-07-20T06:22:49;10.32;;;4.97;;
54241;SDS011;40156;51.080;17.082;2023-07-20T06:25:16;6.15;;;5.38;;
54241;SDS011;40156;51.080;17.082;2023-07-20T06:27:44;7.90;;;5.97;;
54241;SDS011;40156;51.080;17.082;2023-07-20T06:30:12;11.52;;;4.50;;
54241;SDS011;40156;51.080;17.082;2023-07-20T06:32:39;6.55;;;4.95;;
54241;SDS011;40156;51.080;17.082;2023-07-20T06:35:07;7.80;;;4.78;;
54241;SDS011;40156;51.080;17.082;2023-07-20T06:37:35;9.65;;;5.07;;
54241;SDS011;40156;51.080;17.082;2023-07-20T06:40:02;9.38;;;4.88;;
54241;SDS011;40156;51.080;17.082;2023-07-20T06:42:33;13.70;;;5.13;;
54241;SDS011;40156;51.080;17.082;2023-07-20T06:45:03;10.88;;;4.63;;
54241;SDS011;40156;51.080;17.082;2023-07-20T06:47:31;10.45;;;4.45;;
54241;SDS011;40156;51.080;17.082;2023-07-20T06:49:58;8.30;;;5.47;;
54241;SDS011;40156;51.080;17.082;2023-07-20T06:52:26;14.40;;;5.45;;
54241;SDS011;40156;51.080;17.082;2023-07-20T06:54:53;5.15;;;4.55;;
54241;SDS011;40156;51.080;17.082;2023-07-20T06:57:21;7.20;;;4.45;;
54241;SDS011;40156;51.080;17.082;2023-07-20T06:59:53;5.72;;;3.92;;
54241;SDS011;40156;51.080;17.082;2023-07-20T07:02:21;8.80;;;4.22;;
54241;SDS011;40156;51.080;17.082;2023-07-20T07:04:48;6.13;;;3.65;;
54241;SDS011;40156;51.080;17.082;2023-07-20T07:07:15;7.97;;;3.92;;
54241;SDS011;40156;51.080;17.082;2023-07-20T07:09:53;7.70;;;3.75;;
54241;SDS011;40156;51.080;17.082;2023-07-20T07:12:20;5.40;;;4.18;;
54241;SDS011;40156;51.080;17.082;2023-07-20T07:14:48;6.45;;;4.05;;
54241;SDS011;40156;51.080;17.082;2023-07-20T07:17:15;7.20;;;3.83;;
54241;SDS011;40156;51.080;17.082;2023-07-20T07:19:46;5.03;;;3.87;;
54241;SDS011;40156;51.080;17.082;2023-07-20T07:22:16;6.20;;;4.20;;
54241;SDS011;40156;51.080;17.082;2023-07-20T07:24:43;5.95;;;3.70;;
54241;SDS011;40156;51.080;17.082;2023-07-20T07:27:11;7.88;;;4.00;;
54241;SDS011;40156;51.080;17.082;2023-07-20T07:29:38;6.03;;;3.60;;
54241;SDS011;40156;51.080;17.082;2023-07-20T07:32:06;8.30;;;4.18;;
54241;SDS011;40156;51.080;17.082;2023-07-20T07:34:34;5.63;;;3.67;;
54241;SDS011;40156;51.080;17.082;2023-07-20T07:37:01;5.22;;;3.67;;
54241;SDS011;40156;51.080;17.082;2023-07-20T07:39:29;5.20;;;3.47;;
54241;SDS011;40156;51.080;17.082;2023-07-20T07:42:01;6.50;;;3.17;;
54241;SDS011;40156;51.080;17.082;2023-07-20T07:44:29;7.55;;;3.63;;
54241;SDS011;40156;51.080;17.082;2023-07-20T07:46:56;8.13;;;3.28;;
54241;SDS011;40156;51.080;17.082;2023-07-20T07:49:24;3.80;;;2.95;;
54241;SDS011;40156;51.080;17.082;2023-07-20T07:51:51;6.05;;;3.30;;
54241;SDS011;40156;51.080;17.082;2023-07-20T07:54:19;4.28;;;2.60;;
54241;SDS011;40156;51.080;17.082;2023-07-20T07:56:46;6.85;;;3.05;;
54241;SDS011;40156;51.080;17.082;2023-07-20T07:59:14;4.95;;;2.95;;
54241;SDS011;40156;51.080;17.082;2023-07-20T08:01:41;5.60;;;2.80;;
54241;SDS011;40156;51.080;17.082;2023-07-20T08:04:09;5.35;;;3.10;;
54241;SDS011;40156;51.080;17.082;2023-07-20T08:06:36;4.35;;;3.03;;
54241;SDS011;40156;51.080;17.082;2023-07-20T08:09:04;8.05;;;3.55;;
54241;SDS011;40156;51.080;17.082;2023-07-20T08:11:32;4.68;;;2.92;;
54241;SDS011;40156;51.080;17.082;2023-07-20T08:14:00;3.97;;;3.00;;
54241;SDS011;40156;51.080;17.082;2023-07-20T08:16:27;5.15;;;2.78;;
54241;SDS011;40156;51.080;17.082;2023-07-20T08:18:55;5.65;;;3.00;;
54241;SDS011;40156;51.080;17.082;2023-07-20T08:21:23;4.38;;;2.85;;
54241;SDS011;40156;51.080;17.082;2023-07-20T08:23:51;2.97;;;2.55;;
54241;SDS011;40156;51.080;17.082;2023-07-20T08:26:18;3.55;;;2.17;;
54241;SDS011;40156;51.080;17.082;2023-07-20T08:28:46;10.45;;;2.47;;
54241;SDS011;40156;51.080;17.082;2023-07-20T08:31:13;3.83;;;2.60;;
54241;SDS011;40156;51.080;17.082;2023-07-20T08:33:41;2.80;;;2.05;;
54241;SDS011;40156;51.080;17.082;2023-07-20T08:36:09;12.20;;;2.28;;
54241;SDS011;40156;51.080;17.082;2023-07-20T08:38:38;4.10;;;2.90;;
54241;SDS011;40156;51.080;17.082;2023-07-20T08:41:06;3.42;;;1.95;;
54241;SDS011;40156;51.080;17.082;2023-07-20T08:43:33;2.20;;;1.90;;
54241;SDS011;40156;51.080;17.082;2023-07-20T08:46:02;3.10;;;1.80;;
54241;SDS011;40156;51.080;17.082;2023-07-20T08:48:30;2.15;;;1.92;;
54241;SDS011;40156;51.080;17.082;2023-07-20T08:50:58;2.92;;;2.00;;
54241;SDS011;40156;51.080;17.082;2023-07-20T08:53:27;4.60;;;2.30;;
54241;SDS011;40156;51.080;17.082;2023-07-20T08:55:55;2.15;;;1.70;;
54241;SDS011;40156;51.080;17.082;2023-07-20T08:58:23;2.92;;;1.73;;
54241;SDS011;40156;51.080;17.082;2023-07-20T09:00:51;1.92;;;1.70;;
54241;SDS011;40156;51.080;17.082;2023-07-20T09:03:18;2.08;;;1.88;;
54241;SDS011;40156;51.080;17.082;2023-07-20T09:05:46;2.13;;;1.70;;
54241;SDS011;40156;51.080;17.082;2023-07-20T09:08:13;2.95;;;1.65;;
54241;SDS011;40156;51.080;17.082;2023-07-20T09:10:41;3.00;;;1.90;;
54241;SDS011;40156;51.080;17.082;2023-07-20T09:13:08;2.42;;;2.22;;
54241;SDS011;40156;51.080;17.082;2023-07-20T09:15:37;1.95;;;1.73;;
54241;SDS011;40156;51.080;17.082;2023-07-20T09:18:04;3.92;;;1.88;;
54241;SDS011;40156;51.080;17.082;2023-07-20T09:20:32;2.00;;;1.70;;
54241;SDS011;40156;51.080;17.082;2023-07-20T09:22:59;2.30;;;2.10;;
54241;SDS011;40156;51.080;17.082;2023-07-20T09:28:01;2.70;;;2.40;;
54241;SDS011;40156;51.080;17.082;2023-07-20T09:30:29;3.40;;;2.43;;
54241;SDS011;40156;51.080;17.082;2023-07-20T09:32:58;3.50;;;2.38;;
54241;SDS011;40156;51.080;17.082;2023-07-20T09:35:26;2.70;;;2.00;;
54241;SDS011;40156;51.080;17.082;2023-07-20T09:38:07;2.20;;;1.97;;
54241;SDS011;40156;51.080;17.082;2023-07-20T09:40:39;3.17;;;1.75;;
54241;SDS011;40156;51.080;17.082;2023-07-20T09:43:09;2.22;;;1.80;;
54241;SDS011;40156;51.080;17.082;2023-07-20T09:45:41;1.50;;;1.38;;
54241;SDS011;40156;51.080;17.082;2023-07-20T09:48:11;3.30;;;1.50;;
54241;SDS011;40156;51.080;17.082;2023-07-20T09:50:42;2.80;;;1.40;;
54241;SDS011;40156;51.080;17.082;2023-07-20T09:53:13;6.47;;;1.75;;
54241;SDS011;40156;51.080;17.082;2023-07-20T09:55:40;2.15;;;1.60;;
54241;SDS011;40156;51.080;17.082;2023-07-20T09:58:08;2.08;;;1.45;;
54241;SDS011;40156;51.080;17.082;2023-07-20T10:00:37;2.10;;;1.30;;
54241;SDS011;40156;51.080;17.082;2023-07-20T10:03:08;7.05;;;1.40;;
54241;SDS011;40156;51.080;17.082;2023-07-20T10:05:39;2.15;;;1.52;;
54241;SDS011;40156;51.080;17.082;2023-07-20T10:08:08;1.20;;;1.10;;
54241;SDS011;40156;51.080;17.082;2023-07-20T10:10:41;1.67;;;1.50;;
54241;SDS011;40156;51.080;17.082;2023-07-20T10:13:15;1.90;;;1.20;;
54241;SDS011;40156;51.080;17.082;2023-07-20T10:15:50;2.92;;;1.20;;
54241;SDS011;40156;51.080;17.082;2023-07-20T10:18:18;1.10;;;1.00;;
54241;SDS011;40156;51.080;17.082;2023-07-20T10:20:49;1.20;;;1.10;;
54241;SDS011;40156;51.080;17.082;2023-07-20T10:30:33;1.20;;;1.10;;
54241;SDS011;40156;51.080;17.082;2023-07-20T10:33:24;2.67;;;1.10;;
54241;SDS011;40156;51.080;17.082;2023-07-20T10:36:43;1.05;;;1.00;;
54241;SDS011;40156;51.080;17.082;2023-07-20T11:29:46;2.38;;;1.30;;
54241;SDS011;40156;51.080;17.082;2023-07-20T11:32:20;2.85;;;1.30;;
54241;SDS011;40156;51.080;17.082;2023-07-20T11:34:47;1.40;;;1.30;;
54241;SDS011;40156;51.080;17.082;2023-07-20T11:37:15;2.67;;;1.58;;
54241;SDS011;40156;51.080;17.082;2023-07-20T11:39:43;1.60;;;1.48;;
54241;SDS011;40156;51.080;17.082;2023-07-20T11:53:18;2.40;;;2.20;;
54241;SDS011;40156;51.080;17.082;2023-07-20T11:55:46;2.97;;;2.28;;
54241;SDS011;40156;51.080;17.082;2023-07-20T11:58:13;4.85;;;2.60;;
54241;SDS011;40156;51.080;17.082;2023-07-20T12:00:40;4.82;;;3.33;;
54241;SDS011;40156;51.080;17.082;2023-07-20T12:03:11;3.72;;;3.38;;
54241;SDS011;40156;51.080;17.082;2023-07-20T12:05:39;4.85;;;3.40;;
54241;SDS011;40156;51.080;17.082;2023-07-20T12:08:26;5.88;;;3.60;;
54241;SDS011;40156;51.080;17.082;2023-07-20T12:10:54;3.85;;;3.45;;
54241;SDS011;40156;51.080;17.082;2023-07-20T12:13:21;4.50;;;3.40;;
54241;SDS011;40156;51.080;17.082;2023-07-20T12:15:49;4.78;;;3.80;;
54241;SDS011;40156;51.080;17.082;2023-07-20T12:18:22;5.68;;;4.03;;
54241;SDS011;40156;51.080;17.082;2023-07-20T12:20:49;4.20;;;3.80;;
54241;SDS011;40156;51.080;17.082;2023-07-20T12:23:25;3.35;;;3.00;;
54241;SDS011;40156;51.080;17.082;2023-07-20T12:25:56;2.97;;;2.67;;
54241;SDS011;40156;51.080;17.082;2023-07-20T12:28:23;5.82;;;3.05;;
54241;SDS011;40156;51.080;17.082;2023-07-20T12:30:51;3.53;;;2.75;;
54241;SDS011;40156;51.080;17.082;2023-07-20T12:33:18;3.42;;;2.70;;
54241;SDS011;40156;51.080;17.082;2023-07-20T12:35:46;2.45;;;2.25;;
54241;SDS011;40156;51.080;17.082;2023-07-20T12:38:13;2.92;;;1.95;;
54241;SDS011;40156;51.080;17.082;2023-07-20T12:40:41;2.75;;;2.10;;
54241;SDS011;40156;51.080;17.082;2023-07-20T12:43:08;3.10;;;2.00;;
54241;SDS011;40156;51.080;17.082;2023-07-20T12:45:36;2.33;;;1.63;;
54241;SDS011;40156;51.080;17.082;2023-07-20T12:48:03;2.42;;;1.77;;
54241;SDS011;40156;51.080;17.082;2023-07-20T12:50:31;2.63;;;2.03;;
54241;SDS011;40156;51.080;17.082;2023-07-20T12:52:58;2.60;;;2.15;;
54241;SDS011;40156;51.080;17.082;2023-07-20T12:55:26;2.00;;;1.90;;
54241;SDS011;40156;51.080;17.082;2023-07-20T13:01:39;2.33;;;1.92;;
54241;SDS011;40156;51.080;17.082;2023-07-20T13:04:06;2.13;;;1.92;;
54241;SDS011;40156;51.080;17.082;2023-07-20T13:06:37;3.65;;;1.77;;
54241;SDS011;40156;51.080;17.082;2023-07-20T13:09:04;4.53;;;1.70;;
54241;SDS011;40156;51.080;17.082;2023-07-20T13:11:32;1.67;;;1.42;;
54241;SDS011;40156;51.080;17.082;2023-07-20T13:13:59;1.70;;;1.48;;
54241;SDS011;40156;51.080;17.082;2023-07-20T13:16:27;1.60;;;1.30;;
54241;SDS011;40156;51.080;17.082;2023-07-20T13:18:55;2.15;;;1.45;;
54241;SDS011;40156;51.080;17.082;2023-07-20T13:21:22;2.88;;;1.38;;
54241;SDS011;40156;51.080;17.082;2023-07-20T13:23:52;2.92;;;1.35;;
54241;SDS011;40156;51.080;17.082;2023-07-20T13:26:19;2.45;;;1.50;;
54241;SDS011;40156;51.080;17.082;2023-07-20T13:28:47;1.58;;;1.30;;
54241;SDS011;40156;51.080;17.082;2023-07-20T13:31:15;1.40;;;1.30;;
54241;SDS011;40156;51.080;17.082;2023-07-20T13:33:44;1.67;;;1.58;;
54241;SDS011;40156;51.080;17.082;2023-07-20T13:36:22;1.73;;;1.40;;
54241;SDS011;40156;51.080;17.082;2023-07-20T13:38:50;2.47;;;1.50;;
54241;SDS011;40156;51.080;17.082;2023-07-20T13:41:17;1.50;;;1.40;;
54241;SDS011;40156;51.080;17.082;2023-07-20T13:43:46;1.67;;;1.58;;
54241;SDS011;40156;51.080;17.082;2023-07-20T13:46:14;1.70;;;1.60;;
54241;SDS011;40156;51.080;17.082;2023-07-20T13:49:01;1.35;;;1.25;;
54241;SDS011;40156;51.080;17.082;2023-07-20T13:51:29;1.55;;;1.45;;
54241;SDS011;40156;51.080;17.082;2023-07-20T13:53:57;1.73;;;1.63;;
54241;SDS011;40156;51.080;17.082;2023-07-20T13:56:25;1.90;;;1.70;;
54241;SDS011;40156;51.080;17.082;2023-07-20T13:58:53;2.45;;;1.70;;
54241;SDS011;40156;51.080;17.082;2023-07-20T14:01:20;1.58;;;1.30;;
54241;SDS011;40156;51.080;17.082;2023-07-20T14:03:51;1.60;;;1.10;;
54241;SDS011;40156;51.080;17.082;2023-07-20T14:06:38;1.48;;;1.20;;
54241;SDS011;40156;51.080;17.082;2023-07-20T14:09:24;2.55;;;1.40;;
54241;SDS011;40156;51.080;17.082;2023-07-20T14:28:53;4.75;;;1.58;;
54241;SDS011;40156;51.080;17.082;2023-07-20T14:31:57;1.90;;;1.30;;
54241;SDS011;40156;51.080;17.082;2023-07-20T14:34:25;1.40;;;1.30;;
54241;SDS011;40156;51.080;17.082;2023-07-20T14:36:52;1.80;;;1.30;;
54241;SDS011;40156;51.080;17.082;2023-07-20T14:39:19;1.98;;;1.20;;
54241;SDS011;40156;51.080;17.082;2023-07-20T14:41:47;1.90;;;1.80;;
54241;SDS011;40156;51.080;17.082;2023-07-20T14:44:15;1.35;;;1.20;;
54241;SDS011;40156;51.080;17.082;2023-07-20T14:46:42;1.55;;;1.35;;
54241;SDS011;40156;51.080;17.082;2023-07-20T14:49:21;1.30;;;1.20;;
54241;SDS011;40156;51.080;17.082;2023-07-20T14:51:48;3.70;;;1.33;;
54241;SDS011;40156;51.080;17.082;2023-07-20T14:54:16;1.55;;;1.45;;
54241;SDS011;40156;51.080;17.082;2023-07-20T14:56:50;1.20;;;1.10;;
54241;SDS011;40156;51.080;17.082;2023-07-20T14:59:18;4.13;;;1.17;;
54241;SDS011;40156;51.080;17.082;2023-07-20T15:01:45;2.60;;;1.13;;
54241;SDS011;40156;51.080;17.082;2023-07-20T15:04:13;1.70;;;1.30;;
54241;SDS011;40156;51.080;17.082;2023-07-20T15:06:45;2.13;;;1.33;;
54241;SDS011;40156;51.080;17.082;2023-07-20T15:09:12;1.40;;;1.30;;
54241;SDS011;40156;51.080;17.082;2023-07-20T15:11:40;2.35;;;1.38;;
54241;SDS011;40156;51.080;17.082;2023-07-20T15:14:07;1.42;;;1.30;;
54241;SDS011;40156;51.080;17.082;2023-07-20T15:16:35;3.08;;;1.30;;
54241;SDS011;40156;51.080;17.082;2023-07-20T15:19:02;1.42;;;1.25;;
54241;SDS011;40156;51.080;17.082;2023-07-20T15:21:29;2.72;;;1.10;;
54241;SDS011;40156;51.080;17.082;2023-07-20T15:23:58;1.55;;;1.35;;
54241;SDS011;40156;51.080;17.082;2023-07-20T15:26:25;3.20;;;1.65;;
54241;SDS011;40156;51.080;17.082;2023-07-20T15:28:53;1.63;;;1.20;;
54241;SDS011;40156;51.080;17.082;2023-07-20T15:31:20;1.60;;;1.30;;
54241;SDS011;40156;51.080;17.082;2023-07-20T15:34:08;1.10;;;1.10;;
54241;SDS011;40156;51.080;17.082;2023-07-20T15:36:35;1.98;;;1.35;;
54241;SDS011;40156;51.080;17.082;2023-07-20T15:39:03;1.35;;;1.25;;
54241;SDS011;40156;51.080;17.082;2023-07-20T15:41:30;1.38;;;1.25;;
54241;SDS011;40156;51.080;17.082;2023-07-20T15:43:58;3.08;;;1.40;;
54241;SDS011;40156;51.080;17.082;2023-07-20T15:48:53;2.08;;;1.38;;
54241;SDS011;40156;51.080;17.082;2023-07-20T15:51:21;4.50;;;1.55;;
54241;SDS011;40156;51.080;17.082;2023-07-20T15:53:49;1.80;;;1.20;;
54241;SDS011;40156;51.080;17.082;2023-07-20T15:56:17;2.55;;;1.30;;
54241;SDS011;40156;51.080;17.082;2023-07-20T15:58:45;3.03;;;1.23;;
54241;SDS011;40156;51.080;17.082;2023-07-20T16:01:12;1.35;;;1.25;;
54241;SDS011;40156;51.080;17.082;2023-07-20T16:03:40;1.52;;;1.35;;
54241;SDS011;40156;51.080;17.082;2023-07-20T16:06:07;1.45;;;1.30;;
54241;SDS011;40156;51.080;17.082;2023-07-20T16:08:35;2.17;;;1.20;;
54241;SDS011;40156;51.080;17.082;2023-07-20T16:11:02;1.95;;;1.70;;
54241;SDS011;40156;51.080;17.082;2023-07-20T16:13:30;1.35;;;1.25;;
54241;SDS011;40156;51.080;17.082;2023-07-20T16:15:57;1.30;;;1.20;;
54241;SDS011;40156;51.080;17.082;2023-07-20T16:18:25;3.05;;;1.30;;
54241;SDS011;40156;51.080;17.082;2023-07-20T16:20:52;2.15;;;1.10;;
54241;SDS011;40156;51.080;17.082;2023-07-20T16:23:20;1.70;;;1.48;;
54241;SDS011;40156;51.080;17.082;2023-07-20T16:25:47;1.08;;;1.00;;
54241;SDS011;40156;51.080;17.082;2023-07-20T16:28:15;1.73;;;1.00;;